Jump to content


SKYWEST AIRLINES FLIGHT OO3408 FLOWN ON 02-07-2018 BY CAPTAIN JIM BOERMAN

Pilot StatsCaptain Jim Boerman (LDP136) • 4,917.8 total hours • 1,480 total flights [View Logbook]
FLIGHT DETAILS
StatusReceived and approved on 2018-02-07 at 11:02:52
Origin AirportDenver Intl (KDEN) • Denver, Colorado, United States (5,430 feet MSL)
Filed Flight PlanKDEN FQF J80 VHP J24 HICKI KCVG
Destination AirportCincinnati-Northern Ky Intl (KCVG) • Cincinnati, Ohio, United States (896 feet MSL)
Alternate AirportIndianapolis Intl (KIND) • Indianapolis, Indiana, United States (797 feet MSL)
AirlineSkywest Airlines
AircraftBombardier CRJ-700 (CR7 / CRJ-700)
FS Aircraft UsedCRJ700ER United Express N770SK
Cruising AltitudeFL330
Distance Flown927 nautical miles
Passengers Onboard43 passengers (61.43% full)
DEPARTURE DETAILS
Time Out07:05:57
Taxi Data72,259 lbs total with 13,691 lbs of fuel onboard
Takeoff Data07:27:56 (22 minutes after leaving gate/ramp) • 71,649 lbs total • 7° pitch at 160 knots
Departure METARKDEN 071253Z 23008KT 6SM BR FEW004 FEW200 M05/M06 A3019 RMK AO2 SLP242 T10501061
ARRIVAL DETAILS
Landing Data11:36:53 • 64,689 lbs total • 2° pitch doing 117 knots at a rate of -151.48 feet/minute with 5,713 lbs of fuel onboard
Time In11:50:21 (13 minutes after landing)
Ramp Weight64,220 lbs total
Total Fuel Used7,978 lbs
Total Block Time02:44:06 (2.7 hours) while 35 minutes were spent on the ground
Arrival METARKCVG 071552Z 33009KT 4SM BR BKN008 OVC039 M03/M04 A3016 RMK AO2 SLP221 T10331039
MISCELLANEOUS DETAILS
LiveDISPATCH Version4.8.3.1
FS Version
FSUIPC Version5.12
OS VersionWindows 7 32-bit
Screen Resolution1920 x 1080
Pilot's CommentsNo Comments Reported
FLIGHT MAP